sensor_id;sensor_type;location;lat;lon;timestamp;P1;durP1;ratioP1;P2;durP2;ratioP2
39190;SDS011;24916;51.676;6.614;2023-03-01T00:00:12;9.60;;;5.97;;
39190;SDS011;24916;51.676;6.614;2023-03-01T00:02:37;7.32;;;5.18;;
39190;SDS011;24916;51.676;6.614;2023-03-01T00:05:02;9.63;;;5.75;;
39190;SDS011;24916;51.676;6.614;2023-03-01T00:07:28;10.23;;;5.82;;
39190;SDS011;24916;51.676;6.614;2023-03-01T00:09:53;8.95;;;5.88;;
39190;SDS011;24916;51.676;6.614;2023-03-01T00:12:19;7.22;;;5.38;;
39190;SDS011;24916;51.676;6.614;2023-03-01T00:14:44;9.70;;;5.72;;
39190;SDS011;24916;51.676;6.614;2023-03-01T00:17:09;9.38;;;5.65;;
39190;SDS011;24916;51.676;6.614;2023-03-01T00:19:34;10.13;;;6.20;;
39190;SDS011;24916;51.676;6.614;2023-03-01T00:21:59;9.30;;;6.43;;
39190;SDS011;24916;51.676;6.614;2023-03-01T00:24:25;9.38;;;6.15;;
39190;SDS011;24916;51.676;6.614;2023-03-01T00:26:52;10.25;;;6.25;;
39190;SDS011;24916;51.676;6.614;2023-03-01T00:29:17;8.73;;;6.07;;
39190;SDS011;24916;51.676;6.614;2023-03-01T00:31:43;8.90;;;5.75;;
39190;SDS011;24916;51.676;6.614;2023-03-01T00:34:08;8.65;;;6.13;;
39190;SDS011;24916;51.676;6.614;2023-03-01T00:36:35;9.07;;;6.07;;
39190;SDS011;24916;51.676;6.614;2023-03-01T00:39:01;8.38;;;5.78;;
39190;SDS011;24916;51.676;6.614;2023-03-01T00:41:26;9.45;;;6.80;;
39190;SDS011;24916;51.676;6.614;2023-03-01T00:43:52;11.10;;;6.68;;
39190;SDS011;24916;51.676;6.614;2023-03-01T00:46:18;7.90;;;5.72;;
39190;SDS011;24916;51.676;6.614;2023-03-01T00:48:44;9.95;;;6.47;;
39190;SDS011;24916;51.676;6.614;2023-03-01T00:51:17;7.07;;;6.00;;
39190;SDS011;24916;51.676;6.614;2023-03-01T00:53:43;9.63;;;6.78;;
39190;SDS011;24916;51.676;6.614;2023-03-01T00:56:09;10.82;;;5.72;;
39190;SDS011;24916;51.676;6.614;2023-03-01T00:58:34;8.80;;;5.97;;
39190;SDS011;24916;51.676;6.614;2023-03-01T01:01:00;8.68;;;6.40;;
39190;SDS011;24916;51.676;6.614;2023-03-01T01:03:25;10.95;;;6.50;;
39190;SDS011;24916;51.676;6.614;2023-03-01T01:05:53;11.93;;;6.32;;
39190;SDS011;24916;51.676;6.614;2023-03-01T01:08:19;7.40;;;5.68;;
39190;SDS011;24916;51.676;6.614;2023-03-01T01:10:44;8.23;;;6.10;;
39190;SDS011;24916;51.676;6.614;2023-03-01T01:13:10;9.68;;;6.18;;
39190;SDS011;24916;51.676;6.614;2023-03-01T01:15:35;9.13;;;5.80;;
39190;SDS011;24916;51.676;6.614;2023-03-01T01:18:01;9.35;;;6.30;;
39190;SDS011;24916;51.676;6.614;2023-03-01T01:20:26;7.65;;;5.70;;
39190;SDS011;24916;51.676;6.614;2023-03-01T01:22:51;9.32;;;6.13;;
39190;SDS011;24916;51.676;6.614;2023-03-01T01:25:17;9.60;;;6.75;;
39190;SDS011;24916;51.676;6.614;2023-03-01T01:27:42;8.10;;;6.57;;
39190;SDS011;24916;51.676;6.614;2023-03-01T01:30:08;9.15;;;6.10;;
39190;SDS011;24916;51.676;6.614;2023-03-01T01:32:33;12.27;;;6.75;;
39190;SDS011;24916;51.676;6.614;2023-03-01T01:34:58;9.27;;;6.47;;
39190;SDS011;24916;51.676;6.614;2023-03-01T01:37:23;9.15;;;6.35;;
39190;SDS011;24916;51.676;6.614;2023-03-01T01:39:55;11.70;;;6.97;;
39190;SDS011;24916;51.676;6.614;2023-03-01T01:42:21;11.35;;;6.57;;
39190;SDS011;24916;51.676;6.614;2023-03-01T01:44:47;9.88;;;6.63;;
39190;SDS011;24916;51.676;6.614;2023-03-01T01:47:13;9.73;;;6.13;;
39190;SDS011;24916;51.676;6.614;2023-03-01T01:49:43;8.50;;;5.65;;
39190;SDS011;24916;51.676;6.614;2023-03-01T01:52:13;8.63;;;6.57;;
39190;SDS011;24916;51.676;6.614;2023-03-01T01:54:45;8.55;;;6.90;;
39190;SDS011;24916;51.676;6.614;2023-03-01T01:57:14;9.20;;;6.72;;
39190;SDS011;24916;51.676;6.614;2023-03-01T01:59:42;9.60;;;6.25;;
39190;SDS011;24916;51.676;6.614;2023-03-01T02:02:08;11.82;;;6.15;;
39190;SDS011;24916;51.676;6.614;2023-03-01T02:04:33;10.30;;;6.80;;
39190;SDS011;24916;51.676;6.614;2023-03-01T02:07:03;10.25;;;6.72;;
39190;SDS011;24916;51.676;6.614;2023-03-01T02:09:31;8.82;;;6.43;;
39190;SDS011;24916;51.676;6.614;2023-03-01T02:11:57;8.55;;;6.20;;
39190;SDS011;24916;51.676;6.614;2023-03-01T02:14:23;9.85;;;7.15;;
39190;SDS011;24916;51.676;6.614;2023-03-01T02:16:48;14.50;;;6.72;;
39190;SDS011;24916;51.676;6.614;2023-03-01T02:19:18;8.27;;;6.22;;
39190;SDS011;24916;51.676;6.614;2023-03-01T02:24:42;14.30;;;7.07;;
39190;SDS011;24916;51.676;6.614;2023-03-01T02:27:11;11.02;;;6.53;;
39190;SDS011;24916;51.676;6.614;2023-03-01T02:29:36;8.25;;;6.38;;
39190;SDS011;24916;51.676;6.614;2023-03-01T02:32:02;9.70;;;6.38;;
39190;SDS011;24916;51.676;6.614;2023-03-01T02:34:28;9.05;;;6.47;;
39190;SDS011;24916;51.676;6.614;2023-03-01T02:39:22;10.32;;;6.53;;
39190;SDS011;24916;51.676;6.614;2023-03-01T02:41:52;10.02;;;7.00;;
39190;SDS011;24916;51.676;6.614;2023-03-01T02:44:19;10.25;;;7.10;;
39190;SDS011;24916;51.676;6.614;2023-03-01T02:46:47;10.20;;;7.00;;
39190;SDS011;24916;51.676;6.614;2023-03-01T02:49:15;9.07;;;6.20;;
39190;SDS011;24916;51.676;6.614;2023-03-01T02:51:45;10.45;;;6.38;;
39190;SDS011;24916;51.676;6.614;2023-03-01T02:56:38;10.95;;;6.50;;
39190;SDS011;24916;51.676;6.614;2023-03-01T02:59:04;8.75;;;6.53;;
39190;SDS011;24916;51.676;6.614;2023-03-01T03:01:29;10.52;;;7.20;;
39190;SDS011;24916;51.676;6.614;2023-03-01T03:04:04;9.43;;;6.38;;
39190;SDS011;24916;51.676;6.614;2023-03-01T03:06:29;11.45;;;6.63;;
39190;SDS011;24916;51.676;6.614;2023-03-01T03:08:55;8.38;;;6.03;;
39190;SDS011;24916;51.676;6.614;2023-03-01T03:11:20;9.35;;;6.35;;
39190;SDS011;24916;51.676;6.614;2023-03-01T03:13:45;13.18;;;6.97;;
39190;SDS011;24916;51.676;6.614;2023-03-01T03:16:13;8.02;;;6.50;;
39190;SDS011;24916;51.676;6.614;2023-03-01T03:18:38;10.75;;;6.95;;
39190;SDS011;24916;51.676;6.614;2023-03-01T03:21:03;10.43;;;6.82;;
39190;SDS011;24916;51.676;6.614;2023-03-01T03:23:32;8.68;;;6.43;;
39190;SDS011;24916;51.676;6.614;2023-03-01T03:25:57;11.18;;;6.40;;
39190;SDS011;24916;51.676;6.614;2023-03-01T03:28:22;10.60;;;6.55;;
39190;SDS011;24916;51.676;6.614;2023-03-01T03:30:47;8.98;;;6.45;;
39190;SDS011;24916;51.676;6.614;2023-03-01T03:33:13;9.07;;;6.70;;
39190;SDS011;24916;51.676;6.614;2023-03-01T03:35:45;8.18;;;6.93;;
39190;SDS011;24916;51.676;6.614;2023-03-01T03:38:11;11.02;;;7.25;;
39190;SDS011;24916;51.676;6.614;2023-03-01T03:41:03;11.52;;;7.10;;
39190;SDS011;24916;51.676;6.614;2023-03-01T03:43:30;10.05;;;6.93;;
39190;SDS011;24916;51.676;6.614;2023-03-01T03:45:55;8.60;;;6.45;;
39190;SDS011;24916;51.676;6.614;2023-03-01T03:48:22;11.63;;;7.30;;
39190;SDS011;24916;51.676;6.614;2023-03-01T03:50:48;10.98;;;6.90;;
39190;SDS011;24916;51.676;6.614;2023-03-01T03:53:14;10.05;;;7.15;;
39190;SDS011;24916;51.676;6.614;2023-03-01T03:55:39;10.48;;;6.45;;
39190;SDS011;24916;51.676;6.614;2023-03-01T03:58:05;10.52;;;6.53;;
39190;SDS011;24916;51.676;6.614;2023-03-01T04:00:35;9.38;;;6.65;;
39190;SDS011;24916;51.676;6.614;2023-03-01T04:03:01;9.13;;;6.50;;
39190;SDS011;24916;51.676;6.614;2023-03-01T04:05:26;11.68;;;6.78;;
39190;SDS011;24916;51.676;6.614;2023-03-01T04:07:51;13.52;;;6.45;;
39190;SDS011;24916;51.676;6.614;2023-03-01T04:10:27;12.03;;;6.67;;
39190;SDS011;24916;51.676;6.614;2023-03-01T04:12:52;11.15;;;7.32;;
39190;SDS011;24916;51.676;6.614;2023-03-01T04:15:17;11.77;;;6.93;;
39190;SDS011;24916;51.676;6.614;2023-03-01T04:17:44;10.23;;;6.57;;
39190;SDS011;24916;51.676;6.614;2023-03-01T04:20:16;12.90;;;7.07;;
39190;SDS011;24916;51.676;6.614;2023-03-01T04:22:56;15.23;;;7.78;;
39190;SDS011;24916;51.676;6.614;2023-03-01T04:25:22;9.25;;;6.82;;
39190;SDS011;24916;51.676;6.614;2023-03-01T04:27:48;12.60;;;6.53;;
39190;SDS011;24916;51.676;6.614;2023-03-01T04:30:13;10.55;;;7.25;;
39190;SDS011;24916;51.676;6.614;2023-03-01T04:32:39;9.57;;;7.05;;
39190;SDS011;24916;51.676;6.614;2023-03-01T04:35:04;12.98;;;7.28;;
39190;SDS011;24916;51.676;6.614;2023-03-01T04:37:29;11.55;;;6.75;;
39190;SDS011;24916;51.676;6.614;2023-03-01T04:39:54;10.85;;;7.57;;
39190;SDS011;24916;51.676;6.614;2023-03-01T04:42:19;12.18;;;7.10;;
39190;SDS011;24916;51.676;6.614;2023-03-01T04:44:45;10.20;;;7.00;;
39190;SDS011;24916;51.676;6.614;2023-03-01T04:47:10;17.58;;;7.72;;
39190;SDS011;24916;51.676;6.614;2023-03-01T04:49:36;9.80;;;7.45;;
39190;SDS011;24916;51.676;6.614;2023-03-01T04:52:01;13.00;;;7.32;;
39190;SDS011;24916;51.676;6.614;2023-03-01T04:54:27;9.30;;;7.05;;
39190;SDS011;24916;51.676;6.614;2023-03-01T04:56:53;14.63;;;7.63;;
39190;SDS011;24916;51.676;6.614;2023-03-01T04:59:18;11.13;;;7.78;;
39190;SDS011;24916;51.676;6.614;2023-03-01T05:01:47;10.95;;;7.72;;
39190;SDS011;24916;51.676;6.614;2023-03-01T05:04:12;15.20;;;7.43;;
39190;SDS011;24916;51.676;6.614;2023-03-01T05:06:37;11.30;;;7.53;;
39190;SDS011;24916;51.676;6.614;2023-03-01T05:09:03;12.07;;;8.68;;
39190;SDS011;24916;51.676;6.614;2023-03-01T05:11:28;16.10;;;8.30;;
39190;SDS011;24916;51.676;6.614;2023-03-01T05:13:58;17.85;;;8.63;;
39190;SDS011;24916;51.676;6.614;2023-03-01T05:16:24;12.63;;;7.70;;
39190;SDS011;24916;51.676;6.614;2023-03-01T05:18:49;12.93;;;8.40;;
39190;SDS011;24916;51.676;6.614;2023-03-01T05:21:16;10.80;;;7.35;;
39190;SDS011;24916;51.676;6.614;2023-03-01T05:23:41;10.85;;;7.88;;
39190;SDS011;24916;51.676;6.614;2023-03-01T05:26:07;16.10;;;8.43;;
39190;SDS011;24916;51.676;6.614;2023-03-01T05:28:33;11.40;;;7.43;;
39190;SDS011;24916;51.676;6.614;2023-03-01T05:30:58;13.27;;;7.68;;
39190;SDS011;24916;51.676;6.614;2023-03-01T05:33:23;12.18;;;8.05;;
39190;SDS011;24916;51.676;6.614;2023-03-01T05:35:49;12.38;;;8.10;;
39190;SDS011;24916;51.676;6.614;2023-03-01T05:38:15;11.73;;;7.95;;
39190;SDS011;24916;51.676;6.614;2023-03-01T05:40:41;10.63;;;7.60;;
39190;SDS011;24916;51.676;6.614;2023-03-01T05:43:06;10.35;;;7.25;;
39190;SDS011;24916;51.676;6.614;2023-03-01T05:45:32;13.45;;;8.15;;
39190;SDS011;24916;51.676;6.614;2023-03-01T05:47:57;13.90;;;8.25;;
39190;SDS011;24916;51.676;6.614;2023-03-01T05:50:26;11.00;;;7.53;;
39190;SDS011;24916;51.676;6.614;2023-03-01T05:52:55;16.80;;;8.15;;
39190;SDS011;24916;51.676;6.614;2023-03-01T05:55:21;12.27;;;7.18;;
39190;SDS011;24916;51.676;6.614;2023-03-01T05:57:47;11.25;;;8.13;;
39190;SDS011;24916;51.676;6.614;2023-03-01T06:00:13;12.23;;;8.25;;
39190;SDS011;24916;51.676;6.614;2023-03-01T06:02:39;13.45;;;8.35;;
39190;SDS011;24916;51.676;6.614;2023-03-01T06:05:05;14.02;;;8.70;;
39190;SDS011;24916;51.676;6.614;2023-03-01T06:07:31;12.05;;;10.00;;
39190;SDS011;24916;51.676;6.614;2023-03-01T06:09:56;12.38;;;9.18;;
39190;SDS011;24916;51.676;6.614;2023-03-01T06:12:21;13.65;;;10.10;;
39190;SDS011;24916;51.676;6.614;2023-03-01T06:14:47;12.30;;;8.93;;
39190;SDS011;24916;51.676;6.614;2023-03-01T06:17:12;14.23;;;8.60;;
39190;SDS011;24916;51.676;6.614;2023-03-01T06:19:38;12.25;;;8.45;;
39190;SDS011;24916;51.676;6.614;2023-03-01T06:22:03;14.27;;;8.52;;
39190;SDS011;24916;51.676;6.614;2023-03-01T06:24:28;13.10;;;8.43;;
39190;SDS011;24916;51.676;6.614;2023-03-01T06:26:54;11.43;;;7.78;;
39190;SDS011;24916;51.676;6.614;2023-03-01T06:29:19;10.82;;;8.10;;
39190;SDS011;24916;51.676;6.614;2023-03-01T06:31:44;17.88;;;7.85;;
39190;SDS011;24916;51.676;6.614;2023-03-01T06:34:10;11.85;;;8.50;;
39190;SDS011;24916;51.676;6.614;2023-03-01T06:36:38;14.40;;;8.88;;
39190;SDS011;24916;51.676;6.614;2023-03-01T06:39:03;13.27;;;8.70;;
39190;SDS011;24916;51.676;6.614;2023-03-01T06:41:30;17.30;;;8.38;;
39190;SDS011;24916;51.676;6.614;2023-03-01T06:43:55;17.20;;;9.13;;
39190;SDS011;24916;51.676;6.614;2023-03-01T06:46:20;14.38;;;8.48;;
39190;SDS011;24916;51.676;6.614;2023-03-01T06:48:46;13.18;;;8.20;;
39190;SDS011;24916;51.676;6.614;2023-03-01T06:51:11;13.27;;;8.90;;
39190;SDS011;24916;51.676;6.614;2023-03-01T06:53:36;17.52;;;7.88;;
39190;SDS011;24916;51.676;6.614;2023-03-01T06:56:02;14.68;;;8.63;;
39190;SDS011;24916;51.676;6.614;2023-03-01T06:58:27;18.13;;;9.18;;
39190;SDS011;24916;51.676;6.614;2023-03-01T07:00:52;12.73;;;8.55;;
39190;SDS011;24916;51.676;6.614;2023-03-01T07:03:17;17.05;;;7.43;;
39190;SDS011;24916;51.676;6.614;2023-03-01T07:05:43;13.68;;;8.60;;
39190;SDS011;24916;51.676;6.614;2023-03-01T07:08:09;11.15;;;8.40;;
39190;SDS011;24916;51.676;6.614;2023-03-01T07:10:34;13.32;;;8.05;;
39190;SDS011;24916;51.676;6.614;2023-03-01T07:12:59;13.45;;;8.20;;
39190;SDS011;24916;51.676;6.614;2023-03-01T07:15:25;11.23;;;8.05;;
39190;SDS011;24916;51.676;6.614;2023-03-01T07:17:50;11.57;;;7.78;;
39190;SDS011;24916;51.676;6.614;2023-03-01T07:20:16;11.00;;;7.55;;
39190;SDS011;24916;51.676;6.614;2023-03-01T07:22:42;11.48;;;7.57;;
39190;SDS011;24916;51.676;6.614;2023-03-01T07:25:07;13.60;;;8.10;;
39190;SDS011;24916;51.676;6.614;2023-03-01T07:27:33;15.07;;;7.22;;
39190;SDS011;24916;51.676;6.614;2023-03-01T07:29:58;9.77;;;7.43;;
39190;SDS011;24916;51.676;6.614;2023-03-01T07:32:23;11.20;;;7.30;;
39190;SDS011;24916;51.676;6.614;2023-03-01T07:34:48;16.98;;;7.53;;
39190;SDS011;24916;51.676;6.614;2023-03-01T07:37:14;10.45;;;7.43;;
39190;SDS011;24916;51.676;6.614;2023-03-01T07:39:39;10.52;;;7.50;;
39190;SDS011;24916;51.676;6.614;2023-03-01T07:42:04;12.73;;;7.28;;
39190;SDS011;24916;51.676;6.614;2023-03-01T07:44:29;9.85;;;7.15;;
39190;SDS011;24916;51.676;6.614;2023-03-01T07:46:54;11.05;;;7.07;;
39190;SDS011;24916;51.676;6.614;2023-03-01T07:49:21;11.40;;;7.00;;
39190;SDS011;24916;51.676;6.614;2023-03-01T07:51:47;12.43;;;7.60;;
39190;SDS011;24916;51.676;6.614;2023-03-01T07:54:12;12.13;;;5.95;;
39190;SDS011;24916;51.676;6.614;2023-03-01T07:56:37;11.25;;;6.95;;
39190;SDS011;24916;51.676;6.614;2023-03-01T07:59:02;9.88;;;6.75;;
39190;SDS011;24916;51.676;6.614;2023-03-01T08:01:27;12.07;;;7.47;;
39190;SDS011;24916;51.676;6.614;2023-03-01T08:03:53;13.75;;;7.93;;
39190;SDS011;24916;51.676;6.614;2023-03-01T08:06:18;16.33;;;7.60;;
39190;SDS011;24916;51.676;6.614;2023-03-01T08:08:44;11.52;;;7.50;;
39190;SDS011;24916;51.676;6.614;2023-03-01T08:11:10;10.15;;;7.25;;
39190;SDS011;24916;51.676;6.614;2023-03-01T08:13:36;11.82;;;7.13;;
39190;SDS011;24916;51.676;6.614;2023-03-01T08:16:11;15.63;;;6.25;;
39190;SDS011;24916;51.676;6.614;2023-03-01T08:18:37;8.85;;;5.97;;
39190;SDS011;24916;51.676;6.614;2023-03-01T08:21:08;10.77;;;5.82;;
39190;SDS011;24916;51.676;6.614;2023-03-01T08:23:33;10.63;;;6.63;;
39190;SDS011;24916;51.676;6.614;2023-03-01T08:26:09;8.10;;;6.85;;
39190;SDS011;24916;51.676;6.614;2023-03-01T08:28:34;13.25;;;6.75;;
39190;SDS011;24916;51.676;6.614;2023-03-01T08:30:59;9.20;;;5.72;;
39190;SDS011;24916;51.676;6.614;2023-03-01T08:33:24;7.90;;;5.45;;
39190;SDS011;24916;51.676;6.614;2023-03-01T08:35:50;9.52;;;5.68;;
39190;SDS011;24916;51.676;6.614;2023-03-01T08:38:15;10.65;;;6.30;;
39190;SDS011;24916;51.676;6.614;2023-03-01T08:40:40;10.65;;;6.28;;
39190;SDS011;24916;51.676;6.614;2023-03-01T08:43:05;10.23;;;6.05;;
39190;SDS011;24916;51.676;6.614;2023-03-01T08:45:30;8.27;;;5.78;;
39190;SDS011;24916;51.676;6.614;2023-03-01T08:47:56;12.88;;;6.03;;
39190;SDS011;24916;51.676;6.614;2023-03-01T08:50:21;13.07;;;6.50;;
39190;SDS011;24916;51.676;6.614;2023-03-01T08:52:49;11.27;;;5.95;;
39190;SDS011;24916;51.676;6.614;2023-03-01T08:55:14;8.63;;;5.97;;
39190;SDS011;24916;51.676;6.614;2023-03-01T08:57:41;11.65;;;5.55;;
39190;SDS011;24916;51.676;6.614;2023-03-01T09:00:06;11.85;;;6.07;;
39190;SDS011;24916;51.676;6.614;2023-03-01T09:02:33;10.10;;;5.47;;
39190;SDS011;24916;51.676;6.614;2023-03-01T09:04:58;13.68;;;5.93;;
39190;SDS011;24916;51.676;6.614;2023-03-01T09:07:24;8.38;;;5.60;;
39190;SDS011;24916;51.676;6.614;2023-03-01T09:09:53;11.13;;;5.47;;
39190;SDS011;24916;51.676;6.614;2023-03-01T09:12:19;7.30;;;5.15;;
39190;SDS011;24916;51.676;6.614;2023-03-01T09:14:44;7.03;;;4.88;;
39190;SDS011;24916;51.676;6.614;2023-03-01T09:17:09;7.38;;;4.93;;
39190;SDS011;24916;51.676;6.614;2023-03-01T09:19:34;6.30;;;4.80;;
39190;SDS011;24916;51.676;6.614;2023-03-01T09:21:59;10.70;;;4.57;;
39190;SDS011;24916;51.676;6.614;2023-03-01T09:24:25;5.78;;;4.35;;
39190;SDS011;24916;51.676;6.614;2023-03-01T09:26:52;9.25;;;4.78;;
39190;SDS011;24916;51.676;6.614;2023-03-01T09:29:17;12.55;;;4.97;;
39190;SDS011;24916;51.676;6.614;2023-03-01T09:31:43;9.10;;;4.80;;
39190;SDS011;24916;51.676;6.614;2023-03-01T09:34:08;6.03;;;4.75;;
39190;SDS011;24916;51.676;6.614;2023-03-01T09:36:34;6.28;;;4.68;;
39190;SDS011;24916;51.676;6.614;2023-03-01T09:38:59;7.05;;;5.15;;
39190;SDS011;24916;51.676;6.614;2023-03-01T09:44:04;9.65;;;4.90;;
39190;SDS011;24916;51.676;6.614;2023-03-01T09:46:37;12.77;;;4.93;;
39190;SDS011;24916;51.676;6.614;2023-03-01T09:49:05;5.22;;;4.65;;
39190;SDS011;24916;51.676;6.614;2023-03-01T09:51:34;5.80;;;3.65;;
39190;SDS011;24916;51.676;6.614;2023-03-01T09:54:04;7.57;;;4.55;;
39190;SDS011;24916;51.676;6.614;2023-03-01T09:58:59;8.38;;;4.45;;
39190;SDS011;24916;51.676;6.614;2023-03-01T10:06:24;9.33;;;4.20;;
39190;SDS011;24916;51.676;6.614;2023-03-01T10:11:22;6.97;;;4.13;;
39190;SDS011;24916;51.676;6.614;2023-03-01T10:13:56;5.03;;;3.70;;
39190;SDS011;24916;51.676;6.614;2023-03-01T10:18:56;6.93;;;4.20;;
39190;SDS011;24916;51.676;6.614;2023-03-01T10:21:23;9.07;;;6.70;;
39190;SDS011;24916;51.676;6.614;2023-03-01T10:23:51;5.15;;;3.88;;
39190;SDS011;24916;51.676;6.614;2023-03-01T10:26:34;5.43;;;3.20;;
39190;SDS011;24916;51.676;6.614;2023-03-01T10:31:31;6.28;;;4.03;;
39190;SDS011;24916;51.676;6.614;2023-03-01T10:34:01;6.35;;;4.57;;
39190;SDS011;24916;51.676;6.614;2023-03-01T10:36:28;7.68;;;4.40;;
39190;SDS011;24916;51.676;6.614;2023-03-01T10:38:57;7.50;;;4.68;;
39190;SDS011;24916;51.676;6.614;2023-03-01T10:41:24;7.60;;;4.18;;
39190;SDS011;24916;51.676;6.614;2023-03-01T10:43:51;6.05;;;4.43;;
39190;SDS011;24916;51.676;6.614;2023-03-01T10:46:33;6.80;;;4.28;;
39190;SDS011;24916;51.676;6.614;2023-03-01T10:51:40;4.82;;;3.60;;
39190;SDS011;24916;51.676;6.614;2023-03-01T10:54:06;8.70;;;4.65;;
39190;SDS011;24916;51.676;6.614;2023-03-01T10:56:47;8.53;;;4.67;;
39190;SDS011;24916;51.676;6.614;2023-03-01T10:59:25;7.20;;;4.35;;
39190;SDS011;24916;51.676;6.614;2023-03-01T11:04:35;6.57;;;4.32;;
39190;SDS011;24916;51.676;6.614;2023-03-01T11:07:01;7.00;;;4.38;;
39190;SDS011;24916;51.676;6.614;2023-03-01T11:09:26;6.25;;;4.28;;
39190;SDS011;24916;51.676;6.614;2023-03-01T11:11:58;7.80;;;4.25;;
39190;SDS011;24916;51.676;6.614;2023-03-01T11:14:25;7.72;;;4.50;;
39190;SDS011;24916;51.676;6.614;2023-03-01T11:19:34;6.50;;;4.40;;
39190;SDS011;24916;51.676;6.614;2023-03-01T11:26:56;4.95;;;3.92;;
39190;SDS011;24916;51.676;6.614;2023-03-01T11:29:30;6.43;;;4.28;;
39190;SDS011;24916;51.676;6.614;2023-03-01T11:31:57;8.55;;;4.47;;
39190;SDS011;24916;51.676;6.614;2023-03-01T11:34:28;10.10;;;4.35;;
39190;SDS011;24916;51.676;6.614;2023-03-01T11:36:58;5.47;;;4.25;;
39190;SDS011;24916;51.676;6.614;2023-03-01T11:39:31;6.60;;;4.32;;
39190;SDS011;24916;51.676;6.614;2023-03-01T11:42:04;6.07;;;4.10;;
39190;SDS011;24916;51.676;6.614;2023-03-01T11:44:30;10.18;;;4.45;;
39190;SDS011;24916;51.676;6.614;2023-03-01T11:54:32;6.87;;;4.47;;
39190;SDS011;24916;51.676;6.614;2023-03-01T11:59:44;8.43;;;4.30;;
39190;SDS011;24916;51.676;6.614;2023-03-01T12:05:03;11.95;;;4.78;;
39190;SDS011;24916;51.676;6.614;2023-03-01T12:10:19;7.63;;;4.78;;
39190;SDS011;24916;51.676;6.614;2023-03-01T12:17:49;6.80;;;4.55;;
39190;SDS011;24916;51.676;6.614;2023-03-01T12:25:36;6.57;;;4.55;;
39190;SDS011;24916;51.676;6.614;2023-03-01T12:31:11;6.70;;;4.88;;
39190;SDS011;24916;51.676;6.614;2023-03-01T12:42:01;7.03;;;4.80;;
39190;SDS011;24916;51.676;6.614;2023-03-01T12:47:37;12.52;;;4.72;;
39190;SDS011;24916;51.676;6.614;2023-03-01T12:49:47;8.50;;;4.63;;
39190;SDS011;24916;51.676;6.614;2023-03-01T12:54:47;9.13;;;5.17;;
39190;SDS011;24916;51.676;6.614;2023-03-01T12:57:15;8.40;;;5.18;;
39190;SDS011;24916;51.676;6.614;2023-03-01T13:07:30;8.13;;;5.20;;
39190;SDS011;24916;51.676;6.614;2023-03-01T13:17:49;6.80;;;4.83;;
39190;SDS011;24916;51.676;6.614;2023-03-01T13:20:16;6.88;;;5.00;;
39190;SDS011;24916;51.676;6.614;2023-03-01T13:22:42;10.07;;;5.43;;
39190;SDS011;24916;51.676;6.614;2023-03-01T13:25:17;13.65;;;5.45;;
39190;SDS011;24916;51.676;6.614;2023-03-01T13:27:44;9.45;;;5.65;;
39190;SDS011;24916;51.676;6.614;2023-03-01T13:35:48;8.02;;;3.83;;
39190;SDS011;24916;51.676;6.614;2023-03-01T13:40:57;9.05;;;6.22;;
39190;SDS011;24916;51.676;6.614;2023-03-01T13:43:27;9.55;;;6.00;;
39190;SDS011;24916;51.676;6.614;2023-03-01T13:45:53;8.63;;;5.93;;
39190;SDS011;24916;51.676;6.614;2023-03-01T13:48:22;7.93;;;5.40;;
39190;SDS011;24916;51.676;6.614;2023-03-01T13:50:50;8.70;;;6.07;;
39190;SDS011;24916;51.676;6.614;2023-03-01T13:53:17;9.35;;;6.47;;
39190;SDS011;24916;51.676;6.614;2023-03-01T13:55:50;7.32;;;6.00;;
39190;SDS011;24916;51.676;6.614;2023-03-01T14:03:22;9.00;;;6.30;;
39190;SDS011;24916;51.676;6.614;2023-03-01T14:06:07;9.18;;;6.30;;
39190;SDS011;24916;51.676;6.614;2023-03-01T14:08:34;8.23;;;6.00;;
39190;SDS011;24916;51.676;6.614;2023-03-01T14:18:35;10.75;;;6.43;;
39190;SDS011;24916;51.676;6.614;2023-03-01T14:21:07;8.25;;;6.25;;
39190;SDS011;24916;51.676;6.614;2023-03-01T14:23:32;8.07;;;6.00;;
39190;SDS011;24916;51.676;6.614;2023-03-01T14:25:59;8.13;;;5.50;;
39190;SDS011;24916;51.676;6.614;2023-03-01T14:28:28;10.80;;;6.05;;
39190;SDS011;24916;51.676;6.614;2023-03-01T14:30:55;8.25;;;5.72;;
39190;SDS011;24916;51.676;6.614;2023-03-01T14:38:21;8.73;;;5.67;;
39190;SDS011;24916;51.676;6.614;2023-03-01T14:40:47;8.25;;;5.82;;
39190;SDS011;24916;51.676;6.614;2023-03-01T14:43:16;8.82;;;6.30;;
39190;SDS011;24916;51.676;6.614;2023-03-01T14:45:47;11.45;;;5.45;;
39190;SDS011;24916;51.676;6.614;2023-03-01T14:48:13;8.15;;;5.80;;
39190;SDS011;24916;51.676;6.614;2023-03-01T14:50:42;8.40;;;5.32;;
39190;SDS011;24916;51.676;6.614;2023-03-01T14:53:07;10.82;;;6.38;;
39190;SDS011;24916;51.676;6.614;2023-03-01T14:55:41;9.85;;;6.05;;
39190;SDS011;24916;51.676;6.614;2023-03-01T14:58:11;9.52;;;6.07;;
39190;SDS011;24916;51.676;6.614;2023-03-01T15:00:37;10.10;;;5.45;;
39190;SDS011;24916;51.676;6.614;2023-03-01T15:03:11;9.50;;;5.65;;
39190;SDS011;24916;51.676;6.614;2023-03-01T15:05:38;9.50;;;5.25;;
39190;SDS011;24916;51.676;6.614;2023-03-01T15:08:04;9.60;;;6.50;;
39190;SDS011;24916;51.676;6.614;2023-03-01T15:10:31;8.27;;;6.07;;
39190;SDS011;24916;51.676;6.614;2023-03-01T15:13:09;9.95;;;5.75;;
39190;SDS011;24916;51.676;6.614;2023-03-01T15:15:35;13.52;;;7.18;;
39190;SDS011;24916;51.676;6.614;2023-03-01T15:18:05;9.43;;;5.97;;
39190;SDS011;24916;51.676;6.614;2023-03-01T15:20:31;8.93;;;5.20;;
39190;SDS011;24916;51.676;6.614;2023-03-01T15:23:00;7.72;;;5.97;;
39190;SDS011;24916;51.676;6.614;2023-03-01T15:25:26;7.35;;;4.97;;
39190;SDS011;24916;51.676;6.614;2023-03-01T15:27:52;11.35;;;5.70;;
39190;SDS011;24916;51.676;6.614;2023-03-01T15:30:22;9.88;;;5.80;;
39190;SDS011;24916;51.676;6.614;2023-03-01T15:32:48;12.73;;;8.23;;
39190;SDS011;24916;51.676;6.614;2023-03-01T15:40:52;10.13;;;6.20;;
39190;SDS011;24916;51.676;6.614;2023-03-01T15:43:36;8.98;;;5.88;;
39190;SDS011;24916;51.676;6.614;2023-03-01T15:46:02;8.20;;;5.70;;
39190;SDS011;24916;51.676;6.614;2023-03-01T15:48:27;8.68;;;4.90;;
39190;SDS011;24916;51.676;6.614;2023-03-01T15:50:56;7.40;;;4.75;;
39190;SDS011;24916;51.676;6.614;2023-03-01T15:53:23;11.00;;;7.28;;
39190;SDS011;24916;51.676;6.614;2023-03-01T15:55:48;13.85;;;8.52;;
39190;SDS011;24916;51.676;6.614;2023-03-01T15:58:16;16.83;;;5.13;;
39190;SDS011;24916;51.676;6.614;2023-03-01T16:00:42;7.68;;;5.38;;
39190;SDS011;24916;51.676;6.614;2023-03-01T16:03:08;7.78;;;4.20;;
39190;SDS011;24916;51.676;6.614;2023-03-01T16:05:36;8.82;;;5.20;;
39190;SDS011;24916;51.676;6.614;2023-03-01T16:08:02;13.57;;;4.68;;
39190;SDS011;24916;51.676;6.614;2023-03-01T16:10:28;10.10;;;4.88;;
39190;SDS011;24916;51.676;6.614;2023-03-01T16:12:53;6.28;;;4.60;;
39190;SDS011;24916;51.676;6.614;2023-03-01T16:17:44;7.93;;;4.60;;
39190;SDS011;24916;51.676;6.614;2023-03-01T16:20:10;8.30;;;4.20;;
39190;SDS011;24916;51.676;6.614;2023-03-01T16:22:35;5.30;;;3.72;;
39190;SDS011;24916;51.676;6.614;2023-03-01T16:25:00;11.35;;;3.75;;
39190;SDS011;24916;51.676;6.614;2023-03-01T16:27:27;6.07;;;3.45;;
39190;SDS011;24916;51.676;6.614;2023-03-01T16:29:52;6.15;;;4.28;;
39190;SDS011;24916;51.676;6.614;2023-03-01T16:32:18;8.77;;;4.03;;
39190;SDS011;24916;51.676;6.614;2023-03-01T16:34:43;8.38;;;4.57;;
39190;SDS011;24916;51.676;6.614;2023-03-01T16:37:08;6.28;;;4.53;;
39190;SDS011;24916;51.676;6.614;2023-03-01T16:39:33;5.75;;;4.10;;
39190;SDS011;24916;51.676;6.614;2023-03-01T16:41:59;6.93;;;4.28;;
39190;SDS011;24916;51.676;6.614;2023-03-01T16:44:24;8.15;;;4.75;;
39190;SDS011;24916;51.676;6.614;2023-03-01T16:46:50;7.38;;;4.97;;
39190;SDS011;24916;51.676;6.614;2023-03-01T16:49:15;8.82;;;5.28;;